I67

Cincinnati West Airport

Harrison, Ohio, USA
METAR KI67 211755Z AUTO 00000KT 10SM BKN007 BKN033 OVC060 22/20 A2976 RMK AO1 P0002
Observed Flight Rules
Jun-21 @ 17:55 UTC (10 minutes ago) Instrument Flight Rules
Visibility Clouds
10 miles
  • Broken at 700' AGL
  • Broken at 3,300' AGL
  • Overcast at 6,000' AGL
Temperatures Readings Precipitation
Current 22°C / 72°F
Dewpoint 20°C / 68°F
Humidity 88%
Altimeter 29.76" Hg
Pressure 1008 hPa
Elevation 178
Current Rain 0.02
METAR KI67 211755Z AUTO 00000KT 10SM BKN007 BKN033 OVC060 22/20 A2976 RMK AO1 P0002
Observed Flight Rules
Jun-21 @ 17:55 UTC
(10 minutes ago)
IFR
Clouds
  • Broken at 700' AGL
  • Broken at 3,300' AGL
  • Overcast at 6,000' AGL
Temperature Dewpoint
22°C / 72°F 20°C / 68°F
Humidity Altimeter Pressure
88% 29.76" Hg 1008 hPa
Current Rain
0.02